createdAt,value
2023-12-08T00:00:49.132Z,20.10
2023-12-08T00:01:51.515Z,20.10
2023-12-08T00:02:54.094Z,20.10
2023-12-08T00:03:56.782Z,20.10
2023-12-08T00:04:59.656Z,20.10
2023-12-08T00:06:02.129Z,20.10
2023-12-08T00:07:04.736Z,20.10
2023-12-08T00:08:07.234Z,20.10
2023-12-08T00:09:10.735Z,20.10
2023-12-08T00:10:13.782Z,20.10
2023-12-08T00:11:16.143Z,20.10
2023-12-08T00:12:18.602Z,20.10
2023-12-08T00:13:21.060Z,20.10
2023-12-08T00:14:23.552Z,20.10
2023-12-08T00:15:25.955Z,20.10
2023-12-08T00:16:30.876Z,20.10
2023-12-08T00:17:33.618Z,20.10
2023-12-08T00:18:36.849Z,20.10
2023-12-08T00:19:39.450Z,20.10
2023-12-08T00:20:42.033Z,20.10
2023-12-08T00:21:44.544Z,20.10
2023-12-08T00:22:46.973Z,20.10
2023-12-08T00:23:50.286Z,20.10
2023-12-08T00:24:52.680Z,20.10
2023-12-08T00:25:55.195Z,20.10
2023-12-08T00:26:57.676Z,20.10
2023-12-08T00:28:00.161Z,20.10
2023-12-08T00:29:02.849Z,20.10
2023-12-08T00:30:06.595Z,20.10
2023-12-08T00:31:10.404Z,20.00
2023-12-08T00:32:14.070Z,20.10
2023-12-08T00:33:16.854Z,20.00
2023-12-08T00:34:19.696Z,20.10
2023-12-08T00:35:23.482Z,20.00
2023-12-08T00:36:25.964Z,20.00
2023-12-08T00:37:28.457Z,20.10
2023-12-08T00:38:31.104Z,20.00
2023-12-08T00:39:33.530Z,20.10
2023-12-08T00:40:36.025Z,20.00
2023-12-08T00:41:38.493Z,20.10
2023-12-08T00:42:40.947Z,20.10
2023-12-08T00:43:43.451Z,20.10
2023-12-08T00:44:46.060Z,20.10
2023-12-08T00:45:48.990Z,20.00
2023-12-08T00:46:51.811Z,20.10
2023-12-08T00:47:54.470Z,20.10
2023-12-08T00:48:57.140Z,20.10
2023-12-08T00:50:01.186Z,20.10
2023-12-08T00:51:04.552Z,20.10
2023-12-08T00:52:07.101Z,20.10
2023-12-08T00:53:09.669Z,20.10
2023-12-08T00:54:12.228Z,20.00
2023-12-08T00:55:14.727Z,20.00
2023-12-08T00:56:17.125Z,20.00
2023-12-08T00:57:19.837Z,20.00
2023-12-08T00:58:22.718Z,20.00
2023-12-08T00:59:25.224Z,20.00
2023-12-08T01:00:28.195Z,20.00
2023-12-08T01:01:31.080Z,20.00
2023-12-08T01:02:33.936Z,20.10
2023-12-08T01:03:36.722Z,20.10
2023-12-08T01:04:39.337Z,20.10
2023-12-08T01:05:42.378Z,20.10
2023-12-08T01:06:44.855Z,20.10
2023-12-08T01:07:47.241Z,20.10
2023-12-08T01:08:50.026Z,20.10
2023-12-08T01:09:52.472Z,20.10
2023-12-08T01:10:55.022Z,20.10
2023-12-08T01:11:57.441Z,20.10
2023-12-08T01:12:59.824Z,20.10
2023-12-08T01:14:02.215Z,20.00
2023-12-08T01:15:06.228Z,20.00
2023-12-08T01:16:08.972Z,20.00
2023-12-08T01:17:11.444Z,20.00
2023-12-08T01:18:14.038Z,20.00
2023-12-08T01:19:16.449Z,20.00
2023-12-08T01:20:18.955Z,20.00
2023-12-08T01:21:21.322Z,20.00
2023-12-08T01:22:28.478Z,19.90
2023-12-08T01:23:31.046Z,20.00
2023-12-08T01:24:33.502Z,20.00
2023-12-08T01:25:35.818Z,19.90
2023-12-08T01:26:42.607Z,20.00
2023-12-08T01:27:44.968Z,20.00
2023-12-08T01:28:47.413Z,20.00
2023-12-08T01:29:49.861Z,19.90
2023-12-08T01:30:52.434Z,20.00
2023-12-08T01:31:54.873Z,19.90
2023-12-08T01:32:57.425Z,19.90
2023-12-08T01:33:59.991Z,19.90
2023-12-08T01:35:02.688Z,19.90
2023-12-08T01:36:38.521Z,19.90
2023-12-08T01:37:28.640Z,19.90
2023-12-08T01:38:31.684Z,19.90
2023-12-08T01:39:34.235Z,19.90
2023-12-08T01:40:40.622Z,19.90
2023-12-08T01:41:43.109Z,19.90
2023-12-08T01:42:47.664Z,19.90
2023-12-08T01:43:50.095Z,19.90
2023-12-08T01:44:52.553Z,19.90
2023-12-08T01:45:59.220Z,19.90
2023-12-08T01:47:01.805Z,19.90
2023-12-08T01:48:05.832Z,19.80
2023-12-08T01:49:08.753Z,19.80
2023-12-08T01:50:13.747Z,19.80
2023-12-08T01:51:17.401Z,19.80
2023-12-08T01:52:24.103Z,19.80
2023-12-08T01:53:27.254Z,19.80
2023-12-08T01:54:30.218Z,19.70
2023-12-08T01:55:33.414Z,19.70
2023-12-08T01:56:36.011Z,19.70
2023-12-08T01:57:38.759Z,19.70
2023-12-08T01:58:42.573Z,19.70
2023-12-08T01:59:45.345Z,19.70
2023-12-08T02:00:48.677Z,19.60
2023-12-08T02:01:51.141Z,19.60
2023-12-08T02:02:54.544Z,19.60
2023-12-08T02:03:57.661Z,19.60
2023-12-08T02:05:03.434Z,19.50
2023-12-08T02:06:06.200Z,19.50
2023-12-08T02:07:09.671Z,19.50
2023-12-08T02:08:12.137Z,19.50
2023-12-08T02:09:15.004Z,19.50
2023-12-08T02:10:17.409Z,19.50
2023-12-08T02:11:20.124Z,19.50
2023-12-08T02:12:22.954Z,19.50
2023-12-08T02:13:25.443Z,19.50
2023-12-08T02:14:28.104Z,19.40
2023-12-08T02:15:30.557Z,19.40
2023-12-08T02:16:44.082Z,19.40
2023-12-08T02:17:47.568Z,19.40
2023-12-08T02:18:50.346Z,19.40
2023-12-08T02:19:53.697Z,19.40
2023-12-08T02:21:02.800Z,19.40
2023-12-08T02:22:06.561Z,19.40
2023-12-08T02:23:08.936Z,19.30
2023-12-08T02:24:11.405Z,19.40
2023-12-08T02:25:13.794Z,19.30
2023-12-08T02:26:17.797Z,19.30
2023-12-08T02:27:20.713Z,19.30
2023-12-08T02:28:23.121Z,19.30
2023-12-08T02:29:25.631Z,19.30
2023-12-08T02:30:28.358Z,19.30
2023-12-08T02:31:44.554Z,19.20
2023-12-08T02:33:09.124Z,19.30
2023-12-08T02:34:15.731Z,19.30
2023-12-08T02:35:21.057Z,19.30
2023-12-08T02:36:25.599Z,19.30
2023-12-08T02:37:31.583Z,19.20
2023-12-08T02:38:35.149Z,19.20
2023-12-08T02:39:39.167Z,19.20
2023-12-08T02:40:42.613Z,19.20
2023-12-08T02:41:45.492Z,19.20
2023-12-08T02:42:48.011Z,19.20
2023-12-08T02:43:50.399Z,19.20
2023-12-08T02:44:52.737Z,19.20
2023-12-08T02:45:55.178Z,19.10
2023-12-08T02:46:57.924Z,19.10
2023-12-08T02:48:00.525Z,19.10
2023-12-08T02:49:03.126Z,19.10
2023-12-08T02:50:06.244Z,19.10
2023-12-08T02:51:09.400Z,19.10
2023-12-08T02:52:11.946Z,19.10
2023-12-08T02:53:14.282Z,19.10
2023-12-08T02:54:16.673Z,19.10
2023-12-08T02:55:19.166Z,19.10
2023-12-08T02:56:22.256Z,19.10
2023-12-08T02:57:24.945Z,19.10
2023-12-08T02:58:27.520Z,19.10
2023-12-08T02:59:29.987Z,19.10
2023-12-08T03:00:32.399Z,19.10
2023-12-08T03:01:34.891Z,19.10
2023-12-08T03:02:37.503Z,19.00
2023-12-08T03:03:40.161Z,19.00
2023-12-08T03:04:42.788Z,19.10
2023-12-08T03:05:45.209Z,19.10
2023-12-08T03:06:47.670Z,19.00
2023-12-08T03:07:49.991Z,19.00
2023-12-08T03:08:52.408Z,19.10
2023-12-08T03:09:55.259Z,19.00
2023-12-08T03:10:57.656Z,19.00
2023-12-08T03:12:00.072Z,19.10
2023-12-08T03:13:02.385Z,19.00
2023-12-08T03:14:04.704Z,19.00
2023-12-08T03:15:07.719Z,19.00
2023-12-08T03:16:10.479Z,19.00
2023-12-08T03:17:12.971Z,19.00
2023-12-08T03:18:15.445Z,19.00
2023-12-08T03:19:18.079Z,19.00
2023-12-08T03:20:20.573Z,19.00
2023-12-08T03:21:25.963Z,19.00
2023-12-08T03:22:28.542Z,19.00
2023-12-08T03:23:30.921Z,19.00
2023-12-08T03:24:33.268Z,19.00
2023-12-08T03:25:36.152Z,19.00
2023-12-08T03:26:39.697Z,19.00
2023-12-08T03:27:42.131Z,19.00
2023-12-08T03:28:44.818Z,19.00
2023-12-08T03:29:47.285Z,19.00
2023-12-08T03:30:49.696Z,19.00
2023-12-08T03:31:52.047Z,19.00
2023-12-08T03:32:54.545Z,19.00
2023-12-08T03:33:57.334Z,19.00
2023-12-08T03:35:00.584Z,19.00
2023-12-08T03:36:04.407Z,19.00
2023-12-08T03:37:06.849Z,19.00
2023-12-08T03:38:09.246Z,19.00
2023-12-08T03:39:11.799Z,19.00
2023-12-08T03:40:14.502Z,19.00
2023-12-08T03:41:16.919Z,18.90
2023-12-08T03:42:19.375Z,18.90
2023-12-08T03:43:21.787Z,18.90
2023-12-08T03:44:24.470Z,18.90
2023-12-08T03:45:27.204Z,18.90
2023-12-08T03:46:29.561Z,18.90
2023-12-08T03:47:32.136Z,18.90
2023-12-08T03:48:38.007Z,18.90
2023-12-08T03:49:40.833Z,18.90
2023-12-08T03:50:43.329Z,18.90
2023-12-08T03:51:45.710Z,18.90
2023-12-08T03:52:49.717Z,18.90
2023-12-08T03:53:52.217Z,18.90
2023-12-08T03:54:54.578Z,18.90
2023-12-08T03:55:57.048Z,18.90
2023-12-08T03:56:59.792Z,18.90
2023-12-08T03:58:02.180Z,18.90
2023-12-08T03:59:04.558Z,18.80
2023-12-08T04:00:07.713Z,18.80
2023-12-08T04:01:16.152Z,18.90
2023-12-08T04:02:18.614Z,18.80
2023-12-08T04:03:21.625Z,18.80
2023-12-08T04:04:26.373Z,18.80
2023-12-08T04:05:30.075Z,18.90
2023-12-08T04:06:32.416Z,18.80
2023-12-08T04:07:34.844Z,18.80
2023-12-08T04:08:37.320Z,18.90
2023-12-08T04:09:39.683Z,18.80
2023-12-08T04:10:42.891Z,18.80
2023-12-08T04:11:45.275Z,18.80
2023-12-08T04:12:47.738Z,18.80
2023-12-08T04:13:50.287Z,18.90
2023-12-08T04:14:52.778Z,18.80
2023-12-08T04:15:55.158Z,18.80
2023-12-08T04:16:57.531Z,18.80
2023-12-08T04:18:00.408Z,18.80
2023-12-08T04:19:03.165Z,18.90
2023-12-08T04:20:07.061Z,18.90
2023-12-08T04:21:09.537Z,18.80
2023-12-08T04:22:11.949Z,18.80
2023-12-08T04:23:14.405Z,18.80
2023-12-08T04:24:16.877Z,18.90
2023-12-08T04:25:19.299Z,18.90
2023-12-08T04:26:26.109Z,18.80
2023-12-08T04:27:29.028Z,18.80
2023-12-08T04:28:31.447Z,18.80
2023-12-08T04:29:34.150Z,18.80
2023-12-08T04:30:36.482Z,18.90
2023-12-08T04:31:38.879Z,18.90
2023-12-08T04:32:41.476Z,18.80
2023-12-08T04:33:44.086Z,18.80
2023-12-08T04:34:46.660Z,18.80
2023-12-08T04:35:49.219Z,18.80
2023-12-08T04:36:51.684Z,18.80
2023-12-08T04:37:54.102Z,18.80
2023-12-08T04:38:56.479Z,18.80
2023-12-08T04:39:58.890Z,18.80
2023-12-08T04:41:01.251Z,18.80
2023-12-08T04:42:04.323Z,18.80
2023-12-08T04:43:06.781Z,18.80
2023-12-08T04:44:09.188Z,18.80
2023-12-08T04:45:14.678Z,18.70
2023-12-08T04:46:19.005Z,18.70
2023-12-08T04:47:21.348Z,18.70
2023-12-08T04:49:26.613Z,18.70
2023-12-08T04:50:29.259Z,18.80
2023-12-08T04:51:32.193Z,18.80
2023-12-08T04:52:35.906Z,18.80
2023-12-08T04:53:38.397Z,18.80
2023-12-08T04:54:40.777Z,18.80
2023-12-08T04:55:43.105Z,18.80
2023-12-08T04:56:45.539Z,18.80
2023-12-08T04:57:48.119Z,18.80
2023-12-08T04:58:50.911Z,18.80
2023-12-08T04:59:53.264Z,18.80
2023-12-08T05:00:55.923Z,18.80
2023-12-08T05:01:58.437Z,18.80
2023-12-08T05:03:01.427Z,18.70
2023-12-08T05:04:04.237Z,18.80
2023-12-08T05:05:06.863Z,18.70
2023-12-08T05:06:10.053Z,18.70
2023-12-08T05:07:12.536Z,18.70
2023-12-08T05:08:14.988Z,18.70
2023-12-08T05:09:17.575Z,18.70
2023-12-08T05:10:20.091Z,18.70
2023-12-08T05:11:22.559Z,18.70
2023-12-08T05:12:25.561Z,18.70
2023-12-08T05:13:27.928Z,18.70
2023-12-08T05:14:30.948Z,18.70
2023-12-08T05:15:33.489Z,18.70
2023-12-08T05:16:35.841Z,18.70
2023-12-08T05:17:38.308Z,18.70
2023-12-08T05:18:40.892Z,18.70
2023-12-08T05:19:43.445Z,18.70
2023-12-08T05:20:45.839Z,18.70
2023-12-08T05:22:07.135Z,18.70
2023-12-08T05:23:09.561Z,18.60
2023-12-08T05:24:12.069Z,18.60
2023-12-08T05:25:14.843Z,18.60
2023-12-08T05:26:17.263Z,18.60
2023-12-08T05:27:19.668Z,18.60
2023-12-08T05:28:22.497Z,18.60
2023-12-08T05:29:24.958Z,18.60
2023-12-08T05:30:28.531Z,18.60
2023-12-08T05:31:31.025Z,18.60
2023-12-08T05:32:33.524Z,18.60
2023-12-08T05:33:36.079Z,18.60
2023-12-08T05:34:38.628Z,18.60
2023-12-08T05:35:41.542Z,18.60
2023-12-08T05:36:44.042Z,18.60
2023-12-08T05:37:46.415Z,18.60
2023-12-08T05:38:48.799Z,18.60
2023-12-08T05:39:52.152Z,18.60
2023-12-08T05:40:54.506Z,18.60
2023-12-08T05:41:56.926Z,18.60
2023-12-08T05:42:59.349Z,18.60
2023-12-08T05:44:01.717Z,18.60
2023-12-08T05:45:05.732Z,18.60
2023-12-08T05:46:08.266Z,18.60
2023-12-08T05:47:11.104Z,18.50
2023-12-08T05:48:13.610Z,18.60
2023-12-08T05:49:18.498Z,18.60
2023-12-08T05:50:20.954Z,18.50
2023-12-08T05:51:23.350Z,18.60
2023-12-08T05:52:25.785Z,18.50
2023-12-08T05:53:28.640Z,18.60
2023-12-08T05:54:31.012Z,18.50
2023-12-08T05:55:33.424Z,18.50
2023-12-08T05:56:35.934Z,18.50
2023-12-08T05:57:38.403Z,18.50
2023-12-08T05:58:40.828Z,18.50
2023-12-08T05:59:43.278Z,18.50
2023-12-08T06:00:45.841Z,18.50
2023-12-08T06:01:48.318Z,18.50
2023-12-08T06:02:50.791Z,18.50
2023-12-08T06:03:53.247Z,18.50
2023-12-08T06:04:55.643Z,18.50
2023-12-08T06:05:58.211Z,18.50
2023-12-08T06:07:00.828Z,18.50
2023-12-08T06:08:03.415Z,18.50
2023-12-08T06:09:08.050Z,18.50
2023-12-08T06:10:10.601Z,18.50
2023-12-08T06:11:12.986Z,18.50
2023-12-08T06:12:15.458Z,18.60
2023-12-08T06:13:17.833Z,18.60
2023-12-08T06:14:20.193Z,18.60
2023-12-08T06:15:22.712Z,18.60
2023-12-08T06:16:25.139Z,18.70
2023-12-08T06:17:28.537Z,18.70
2023-12-08T06:18:31.311Z,18.70
2023-12-08T06:19:33.771Z,18.80
2023-12-08T06:20:36.187Z,18.80
2023-12-08T06:21:38.606Z,18.80
2023-12-08T06:22:42.006Z,18.80
2023-12-08T06:23:44.377Z,18.90
2023-12-08T06:24:46.826Z,18.90
2023-12-08T06:25:49.300Z,19.00
2023-12-08T06:26:51.804Z,19.00
2023-12-08T06:27:54.645Z,19.00
2023-12-08T06:28:57.633Z,19.10
2023-12-08T06:30:00.137Z,19.10
2023-12-08T06:31:02.722Z,19.10
2023-12-08T06:32:06.366Z,19.10
2023-12-08T06:33:08.886Z,19.20
2023-12-08T06:34:16.601Z,19.20
2023-12-08T06:35:19.871Z,19.20
2023-12-08T06:36:22.270Z,19.20
2023-12-08T06:37:24.989Z,19.30
2023-12-08T06:38:27.586Z,19.30
2023-12-08T06:39:29.939Z,19.40
2023-12-08T06:40:32.333Z,19.40
2023-12-08T06:41:34.812Z,19.40
2023-12-08T06:42:37.242Z,19.40
2023-12-08T06:43:39.654Z,19.40
2023-12-08T06:44:42.096Z,19.40
2023-12-08T06:45:44.499Z,19.50
2023-12-08T06:46:47.135Z,19.50
2023-12-08T06:47:49.842Z,19.50
2023-12-08T06:48:52.371Z,19.50
2023-12-08T06:49:55.068Z,19.50
2023-12-08T06:50:57.618Z,19.50
2023-12-08T06:52:00.043Z,19.60
2023-12-08T06:53:02.662Z,19.60
2023-12-08T06:54:07.884Z,19.60
2023-12-08T06:55:10.524Z,19.60
2023-12-08T06:56:13.044Z,19.60
2023-12-08T06:57:15.529Z,19.60
2023-12-08T06:58:18.530Z,19.70
2023-12-08T06:59:20.949Z,19.70
2023-12-08T07:00:23.660Z,19.70
2023-12-08T07:01:26.283Z,19.70
2023-12-08T07:02:28.690Z,19.70
2023-12-08T07:03:31.316Z,19.70
2023-12-08T07:04:34.038Z,19.70
2023-12-08T07:05:36.584Z,19.70
2023-12-08T07:06:39.142Z,19.70
2023-12-08T07:07:41.508Z,19.70
2023-12-08T07:08:43.955Z,19.70
2023-12-08T07:09:46.402Z,19.80
2023-12-08T07:10:48.753Z,19.80
2023-12-08T07:11:51.157Z,19.80
2023-12-08T07:12:53.548Z,19.80
2023-12-08T07:13:55.987Z,19.80
2023-12-08T07:14:58.462Z,19.80
2023-12-08T07:16:00.877Z,19.80
2023-12-08T07:17:03.423Z,19.90
2023-12-08T07:18:06.094Z,19.90
2023-12-08T07:19:08.622Z,19.90
2023-12-08T07:20:12.508Z,19.90
2023-12-08T07:21:15.159Z,19.90
2023-12-08T07:22:18.228Z,19.90
2023-12-08T07:23:21.061Z,19.90
2023-12-08T07:24:23.470Z,19.90
2023-12-08T07:25:26.802Z,19.90
2023-12-08T07:26:29.718Z,19.90
2023-12-08T07:27:33.470Z,19.90
2023-12-08T07:28:35.998Z,19.90
2023-12-08T07:29:38.418Z,19.90
2023-12-08T07:30:42.117Z,19.90
2023-12-08T07:31:44.554Z,19.90
2023-12-08T07:32:49.443Z,19.90
2023-12-08T07:33:52.112Z,20.00
2023-12-08T07:34:54.810Z,20.00
2023-12-08T07:35:57.627Z,20.00
2023-12-08T07:37:00.196Z,20.00
2023-12-08T07:38:04.774Z,20.00
2023-12-08T07:39:08.526Z,20.00
2023-12-08T07:40:11.438Z,20.00
2023-12-08T07:41:13.887Z,20.00
2023-12-08T07:42:16.368Z,20.00
2023-12-08T07:43:18.771Z,20.00
2023-12-08T07:44:21.101Z,20.00
2023-12-08T07:45:28.226Z,20.00
2023-12-08T07:46:31.662Z,20.00
2023-12-08T07:47:34.705Z,20.00
2023-12-08T07:48:37.355Z,20.00
2023-12-08T07:49:40.169Z,20.00
2023-12-08T07:50:42.794Z,20.10
2023-12-08T07:51:45.225Z,20.10
2023-12-08T07:52:47.639Z,20.10
2023-12-08T07:53:50.047Z,20.10
2023-12-08T07:54:52.488Z,20.10
2023-12-08T07:55:54.867Z,20.10
2023-12-08T07:56:57.502Z,20.10
2023-12-08T07:57:59.965Z,20.10
2023-12-08T07:59:02.427Z,20.10
2023-12-08T08:00:07.481Z,20.10
2023-12-08T08:01:10.206Z,20.10
2023-12-08T08:02:13.010Z,20.10
2023-12-08T08:03:15.516Z,20.10
2023-12-08T08:04:18.224Z,20.10
2023-12-08T08:05:22.598Z,20.10
2023-12-08T08:06:26.226Z,20.10
2023-12-08T08:07:29.946Z,20.10
2023-12-08T08:08:34.270Z,20.20
2023-12-08T08:09:36.779Z,20.10
2023-12-08T08:10:39.205Z,20.20
2023-12-08T08:11:41.906Z,20.10
2023-12-08T08:12:44.358Z,20.20
2023-12-08T08:13:46.773Z,20.20
2023-12-08T08:14:49.274Z,20.20
2023-12-08T08:15:51.844Z,20.20
2023-12-08T08:16:54.563Z,20.20
2023-12-08T08:17:58.148Z,20.20
2023-12-08T08:19:00.705Z,20.20
2023-12-08T08:20:04.950Z,20.20
2023-12-08T08:21:07.372Z,20.20
2023-12-08T08:22:29.312Z,20.20
2023-12-08T08:23:35.049Z,20.20
2023-12-08T08:24:39.585Z,20.20
2023-12-08T08:25:43.013Z,20.20
2023-12-08T08:26:46.270Z,20.20
2023-12-08T08:27:50.315Z,20.10
2023-12-08T08:28:52.917Z,19.90
2023-12-08T08:29:55.959Z,19.70
2023-12-08T08:30:58.437Z,19.30
2023-12-08T08:32:00.846Z,19.00
2023-12-08T08:33:03.661Z,18.70
2023-12-08T08:34:06.430Z,18.60
2023-12-08T08:35:09.756Z,18.40
2023-12-08T08:36:13.168Z,18.20
2023-12-08T08:37:15.595Z,18.10
2023-12-08T08:38:17.937Z,17.90
2023-12-08T08:39:20.367Z,17.70
2023-12-08T08:40:22.847Z,17.50
2023-12-08T08:41:25.363Z,17.40
2023-12-08T08:42:27.871Z,17.30
2023-12-08T08:43:30.470Z,17.10
2023-12-08T08:44:32.904Z,17.00
2023-12-08T08:45:35.278Z,16.80
2023-12-08T08:46:39.556Z,16.70
2023-12-08T08:47:42.757Z,16.60
2023-12-08T08:48:45.641Z,16.40
2023-12-08T08:49:48.410Z,16.40
2023-12-08T08:50:53.923Z,16.30
2023-12-08T08:51:56.313Z,16.30
2023-12-08T08:53:00.693Z,16.20
2023-12-08T08:54:03.519Z,16.30
2023-12-08T08:55:07.367Z,16.40
2023-12-08T08:56:11.112Z,16.50
2023-12-08T08:57:13.785Z,16.60
2023-12-08T08:58:16.739Z,16.70
2023-12-08T08:59:19.270Z,16.70
2023-12-08T09:00:22.805Z,16.80
2023-12-08T09:01:25.259Z,16.90
2023-12-08T09:02:27.757Z,16.90
2023-12-08T09:03:30.485Z,16.90
2023-12-08T09:04:33.070Z,17.00
2023-12-08T09:05:42.140Z,17.10
2023-12-08T09:06:44.972Z,17.10
2023-12-08T09:07:47.673Z,17.20
2023-12-08T09:08:50.184Z,17.20
2023-12-08T09:09:52.608Z,17.30
2023-12-08T09:10:55.001Z,17.30
2023-12-08T09:11:57.476Z,17.30
2023-12-08T09:12:59.928Z,17.40
2023-12-08T09:14:02.332Z,17.40
2023-12-08T09:15:05.316Z,17.30
2023-12-08T09:16:07.850Z,17.30
2023-12-08T09:17:11.574Z,17.20
2023-12-08T09:18:14.806Z,17.20
2023-12-08T09:19:17.375Z,17.10
2023-12-08T09:20:20.342Z,17.10
2023-12-08T09:21:22.888Z,17.10
2023-12-08T09:22:25.452Z,17.10
2023-12-08T09:23:28.056Z,17.00
2023-12-08T09:24:30.513Z,17.00
2023-12-08T09:25:33.332Z,17.00
2023-12-08T09:26:36.700Z,17.00
2023-12-08T09:27:41.561Z,17.00
2023-12-08T09:28:43.957Z,17.00
2023-12-08T09:29:46.615Z,17.00
2023-12-08T09:30:49.356Z,17.00
2023-12-08T09:31:52.273Z,17.00
2023-12-08T09:32:54.788Z,17.00
2023-12-08T09:33:58.886Z,17.00
2023-12-08T09:35:01.461Z,16.90
2023-12-08T09:36:04.432Z,17.00
2023-12-08T09:37:26.416Z,16.90
2023-12-08T09:38:34.069Z,16.90
2023-12-08T09:39:38.539Z,16.90
2023-12-08T09:40:44.519Z,16.90
2023-12-08T09:41:47.738Z,16.80
2023-12-08T09:43:07.720Z,16.80
2023-12-08T09:44:14.284Z,16.70
2023-12-08T09:45:19.799Z,16.70
2023-12-08T09:46:24.936Z,16.70
2023-12-08T09:47:29.440Z,16.90
2023-12-08T09:48:35.176Z,17.00
2023-12-08T09:49:45.163Z,17.10
2023-12-08T09:50:48.885Z,17.20
2023-12-08T09:51:51.396Z,17.30
2023-12-08T09:52:55.230Z,17.40
2023-12-08T09:53:58.484Z,17.50
2023-12-08T09:55:00.941Z,17.50
2023-12-08T09:56:04.456Z,17.60
2023-12-08T09:57:08.129Z,17.70
2023-12-08T09:58:12.248Z,17.80
2023-12-08T09:59:17.081Z,17.80
2023-12-08T10:00:21.688Z,17.90
2023-12-08T10:01:24.466Z,18.00
2023-12-08T10:02:27.284Z,18.00
2023-12-08T10:03:30.558Z,18.10
2023-12-08T10:04:33.556Z,18.20
2023-12-08T10:05:36.602Z,18.30
2023-12-08T10:06:42.590Z,18.30
2023-12-08T10:07:48.918Z,18.40
2023-12-08T10:08:51.365Z,18.40
2023-12-08T10:09:54.511Z,18.50
2023-12-08T10:10:58.577Z,18.50
2023-12-08T10:12:00.948Z,18.50
2023-12-08T10:13:03.417Z,18.60
2023-12-08T10:14:06.971Z,18.60
2023-12-08T10:15:11.019Z,18.60
2023-12-08T10:16:13.366Z,18.70
2023-12-08T10:17:15.915Z,18.70
2023-12-08T10:18:26.643Z,18.80
2023-12-08T10:19:29.402Z,18.80
2023-12-08T10:20:31.951Z,18.80
2023-12-08T10:21:38.232Z,18.80
2023-12-08T10:22:59.791Z,18.90
2023-12-08T10:24:06.450Z,18.90
2023-12-08T10:25:09.713Z,19.00
2023-12-08T10:26:17.270Z,19.00
2023-12-08T10:27:19.737Z,19.00
2023-12-08T10:28:22.837Z,19.00
2023-12-08T10:29:29.705Z,19.10
2023-12-08T10:30:32.072Z,19.10
2023-12-08T10:31:34.527Z,19.10
2023-12-08T10:32:38.572Z,19.10
2023-12-08T10:33:42.520Z,19.10
2023-12-08T10:34:45.100Z,19.20
2023-12-08T10:35:48.142Z,19.10
2023-12-08T10:36:50.620Z,19.20
2023-12-08T10:37:53.004Z,19.20
2023-12-08T10:38:55.815Z,19.20
2023-12-08T10:39:59.984Z,19.20
2023-12-08T10:41:04.083Z,19.20
2023-12-08T10:42:06.560Z,19.30
2023-12-08T10:43:09.018Z,19.30
2023-12-08T10:44:13.688Z,19.30
2023-12-08T10:45:16.789Z,19.30
2023-12-08T10:46:19.609Z,19.30
2023-12-08T10:47:22.443Z,19.30
2023-12-08T10:48:25.318Z,19.40
2023-12-08T10:49:28.953Z,19.30
2023-12-08T10:50:32.223Z,19.40
2023-12-08T10:51:35.458Z,19.40
2023-12-08T10:52:42.355Z,19.40
2023-12-08T10:53:45.980Z,19.40
2023-12-08T10:54:50.062Z,19.40
2023-12-08T10:56:05.240Z,19.40
2023-12-08T10:57:09.087Z,19.40
2023-12-08T10:58:16.150Z,19.40
2023-12-08T10:59:25.665Z,19.50
2023-12-08T11:00:30.203Z,19.50
2023-12-08T11:01:34.351Z,19.50
2023-12-08T11:02:37.454Z,19.50
2023-12-08T11:03:43.804Z,19.50
2023-12-08T11:04:58.672Z,19.50
2023-12-08T11:06:11.645Z,19.50
2023-12-08T11:07:19.298Z,19.50
2023-12-08T11:08:22.780Z,19.60
2023-12-08T11:09:29.170Z,19.60
2023-12-08T11:10:35.227Z,19.60
2023-12-08T11:11:43.895Z,19.60
2023-12-08T11:13:00.394Z,19.60
2023-12-08T11:14:10.559Z,19.60
2023-12-08T11:15:18.240Z,19.60
2023-12-08T11:16:41.525Z,19.70
2023-12-08T11:18:02.672Z,19.60
2023-12-08T11:19:06.822Z,19.70
2023-12-08T11:20:11.179Z,19.70
2023-12-08T11:21:13.845Z,19.70
2023-12-08T11:22:17.326Z,19.70
2023-12-08T11:23:21.638Z,19.70
2023-12-08T11:24:24.575Z,19.70
2023-12-08T11:25:34.804Z,19.70
2023-12-08T11:26:52.647Z,19.70
2023-12-08T11:28:13.442Z,19.70
2023-12-08T11:29:54.012Z,19.70
2023-12-08T11:31:00.972Z,19.80
2023-12-08T11:32:37.071Z,19.80
2023-12-08T11:34:09.164Z,19.80
2023-12-08T11:35:15.937Z,19.80
2023-12-08T11:36:20.018Z,19.80
2023-12-08T11:37:23.420Z,19.80
2023-12-08T11:38:30.320Z,19.80
2023-12-08T11:39:36.525Z,19.80
2023-12-08T11:40:56.376Z,19.80
2023-12-08T11:41:59.294Z,19.90
2023-12-08T11:43:03.501Z,19.90
2023-12-08T11:44:09.067Z,19.90
2023-12-08T11:45:12.571Z,19.90
2023-12-08T11:46:16.327Z,19.90
2023-12-08T11:47:22.116Z,19.90
2023-12-08T11:48:25.688Z,19.90
2023-12-08T11:49:28.437Z,19.90
2023-12-08T11:50:34.011Z,19.90
2023-12-08T11:51:37.834Z,19.90
2023-12-08T11:52:43.525Z,19.90
2023-12-08T11:53:56.517Z,19.90
2023-12-08T11:55:13.488Z,19.90
2023-12-08T11:56:38.449Z,19.90
2023-12-08T11:58:18.494Z,19.90
2023-12-08T11:59:25.281Z,20.00
2023-12-08T12:00:32.123Z,20.00
2023-12-08T12:01:38.974Z,20.00
2023-12-08T12:02:43.642Z,20.00
2023-12-08T12:03:46.348Z,20.00
2023-12-08T12:04:53.044Z,20.00
2023-12-08T12:05:55.566Z,20.00
2023-12-08T12:06:58.158Z,20.00
2023-12-08T12:08:00.615Z,20.00
2023-12-08T12:09:06.068Z,20.00
2023-12-08T12:10:11.360Z,20.00
2023-12-08T12:11:16.532Z,20.10
2023-12-08T12:12:28.592Z,20.00
2023-12-08T12:13:33.978Z,20.10
2023-12-08T12:14:43.903Z,20.10
2023-12-08T12:15:46.707Z,20.10
2023-12-08T12:16:49.290Z,20.10
2023-12-08T12:17:53.087Z,20.10
2023-12-08T12:18:56.098Z,20.10
2023-12-08T12:19:58.836Z,20.10
2023-12-08T12:21:01.452Z,20.10
2023-12-08T12:22:05.718Z,20.10
2023-12-08T12:23:08.364Z,20.10
2023-12-08T12:24:10.885Z,20.10
2023-12-08T12:25:13.361Z,20.10
2023-12-08T12:26:21.874Z,20.10
2023-12-08T12:27:24.803Z,20.10
2023-12-08T12:28:27.321Z,20.10
2023-12-08T12:29:30.993Z,20.10
2023-12-08T12:30:34.304Z,20.20
2023-12-08T12:31:38.017Z,20.10
2023-12-08T12:32:41.542Z,20.10
2023-12-08T12:33:49.378Z,20.20
2023-12-08T12:34:52.423Z,20.20
2023-12-08T12:35:57.116Z,20.20
2023-12-08T12:37:01.053Z,20.20
2023-12-08T12:38:04.276Z,20.20
2023-12-08T12:39:07.472Z,20.20
2023-12-08T12:40:13.313Z,20.20
2023-12-08T12:41:26.976Z,20.20
2023-12-08T12:42:29.915Z,20.20
2023-12-08T12:43:32.556Z,20.20
2023-12-08T12:44:41.339Z,20.20
2023-12-08T12:45:43.953Z,20.20
2023-12-08T12:46:47.904Z,20.20
2023-12-08T12:47:51.003Z,20.20
2023-12-08T12:48:54.654Z,20.30
2023-12-08T12:50:04.922Z,20.30
2023-12-08T12:51:09.180Z,20.30
2023-12-08T12:52:27.191Z,20.30
2023-12-08T12:53:30.188Z,20.30
2023-12-08T12:54:35.907Z,20.20
2023-12-08T12:55:39.236Z,20.30
2023-12-08T12:56:51.372Z,20.30
2023-12-08T12:57:54.119Z,20.30
2023-12-08T12:59:10.736Z,20.30
2023-12-08T13:00:13.892Z,20.30
2023-12-08T13:01:16.805Z,20.30
2023-12-08T13:02:29.021Z,20.30
2023-12-08T13:03:31.914Z,20.30
2023-12-08T13:04:34.614Z,20.30
2023-12-08T13:05:56.749Z,20.30
2023-12-08T13:06:59.944Z,20.30
2023-12-08T13:08:02.432Z,20.30
2023-12-08T13:09:08.106Z,20.30
2023-12-08T13:10:10.644Z,20.30
2023-12-08T13:11:13.009Z,20.30
2023-12-08T13:12:15.701Z,20.30
2023-12-08T13:13:19.085Z,20.30
2023-12-08T13:14:21.521Z,20.30
2023-12-08T13:15:23.893Z,20.30
2023-12-08T13:16:26.644Z,20.30
2023-12-08T13:17:29.409Z,20.30
2023-12-08T13:18:32.748Z,20.40
2023-12-08T13:19:35.714Z,20.40
2023-12-08T13:20:39.252Z,20.30
2023-12-08T13:21:41.730Z,20.40
2023-12-08T13:22:44.122Z,20.40
2023-12-08T13:23:48.918Z,20.40
2023-12-08T13:24:51.556Z,20.40
2023-12-08T13:25:54.107Z,20.40
2023-12-08T13:26:56.579Z,20.40
2023-12-08T13:27:59.405Z,20.40
2023-12-08T13:29:02.415Z,20.40
2023-12-08T13:30:05.707Z,20.40
2023-12-08T13:31:08.250Z,20.40
2023-12-08T13:32:10.975Z,20.40
2023-12-08T13:33:13.468Z,20.40
2023-12-08T13:34:16.220Z,20.40
2023-12-08T13:35:18.822Z,20.40
2023-12-08T13:36:21.392Z,20.40
2023-12-08T13:37:23.873Z,20.30
2023-12-08T13:38:26.463Z,20.30
2023-12-08T13:39:31.908Z,20.30
2023-12-08T13:40:34.496Z,20.30
2023-12-08T13:41:37.122Z,20.20
2023-12-08T13:42:40.992Z,20.20
2023-12-08T13:43:43.531Z,20.20
2023-12-08T13:44:46.200Z,20.20